AirNav   Bose Proflight Series 2 Wireless Aviation Headset
 
 1001 users online  

4NJ1 Somerset Medical Center Heliport
Somerville, New Jersey, USA

GOING TO SOMERVILLE?


FAA INFORMATION EFFECTIVE 07 NOVEMBER 2019

Location

FAA Identifier: 4NJ1
Lat/Long: 40-34-08.1900N 074-35-40.1100W
40-34.136500N 074-35.668500W
40.5689417,-74.5944750
(estimated)
Elevation: 136 ft. / 41 m (estimated)
Variation: 12W (1985)
Time zone: UTC -5 (UTC -4 during Daylight Saving Time)
Zip code: 08876

Heliport Operations

Heliport use: Private use, MEDICAL USE.
Activation date: 06/1991
Control tower: no
ARTCC: NEW YORK CENTER
FSS: MILLVILLE FLIGHT SERVICE STATION
Attendance: UNATNDD
Wind indicator: lighted
Segmented circle: no
Lights: FOR PERIMETER LGTS CALL 908-685-2588.

Heliport Communications

WX ASOS at SMQ (5 nm NW): 120.6 (908-722-2139)
WX AWOS-3 at MMU (16 nm NE): PHONE 973-290-0135
WX AWOS-3 at LDJ (16 nm E): 124.025 (908-862-7383)

Nearby radio navigation aids

VOR radial/distance  VOR name  Freq  Var
SBJr107/6.8SOLBERG VOR/DME112.9010W
BWZr154/17.2BROADWAY VOR/DME114.2011W
RBVr358/22.5ROBBINSVILLE VORTAC113.8010W
ARDr047/23.7YARDLEY VOR/DME108.2010W
COLr319/25.1COLTS NECK VOR/DME115.4011W
STWr165/28.5STILLWATER VOR/DME109.6011W
TEBr246/29.5TETERBORO VOR/DME108.4011W
SAXr196/30.0SPARTA VORTAC115.7011W
CRIr276/32.0CANARSIE VOR/DME112.3011W
GXUr012/33.6MC GUIRE VORTAC110.6012W
LGAr261/35.5LA GUARDIA VOR/DME113.1012W
JFKr276/37.7KENNEDY VOR/DME115.9012W

 
NDB name  Hdg/Dist  Freq  Var  ID
CHATHAM229/12.725413WCAT -.-. .- -
LAKEHURST350/33.639611WNEL -. . .-..

Heliport Services

Runway Information

Helipad H1

Dimensions: 45 x 45 ft. / 14 x 14 m
Surface: concrete
MAX WT 12,000 LBS.
Runway edge lights: PERI
Latitude: 40-34.136500N
Longitude: 074-35.668500W
Elevation: 136.0 ft.
Traffic pattern: leftleft

Heliport Ownership and Management from official FAA records

Ownership: Privately-owned
Owner: SOMERSET MEDICAL CENTER
110 REHILL AVE
SOMERVILLE, NJ 08876-2598
Phone 908-685-2588
Manager: MARLIN BULLOCK
110 REHILL AVE
SOMERVILLE, NJ 08876-2598
Phone (908) 685-2978

Additional Remarks

FOR CD CTC NEW YORK APCH AT 800-645-3206.

Instrument Procedures

There are no published instrument procedures at 4NJ1.

Some nearby airports with instrument procedures:

47N - Central Jersey Regional Airport (3 nm S)
KSMQ - Somerset Airport (5 nm NW)
N51 - Solberg-Hunterdon Airport (7 nm W)
39N - Princeton Airport (11 nm S)
KMMU - Morristown Municipal Airport (16 nm NE)
KLDJ - Linden Airport (16 nm E)
N40 - Sky Manor Airport (18 nm W)
3N6 - Old Bridge Airport (18 nm SE)
N85 - Alexandria Airport (19 nm W)
 
Loc | Ops | Rwys | IFR | FBO | Links
Com | Nav | Svcs | Stats | Notes
Area around 4NJ1 (Somerset Medical Center Heliport)
 
Road maps at: MapQuest Bing Google
 
Aerial photo
No photo
 
Sectional chart

 
Airport distance calculator
Flying to Somerset Medical Center Heliport? Find the distance to fly.

From to 4NJ1

Sunrise and sunset
Times for 16-Nov-2019
 Local
(UTC-5)
 Zulu
(UTC)
Morning civil twilight06:1811:18
Sunrise06:4711:47
Sunset16:3921:39
Evening civil twilight17:0922:09

Current date and time
Zulu (UTC)  16-Nov-2019 21:04:13
Local (UTC-5)  16-Nov-2019 16:04:13
 
METAR
KSMQ 
4nm NW 
ASOS 120.60 908-722-2139
162053Z AUTO 07006KT 10SM CLR 04/M19 A3042 RMK AO2 SLP301 T00441194 55003 $
KMMU 
15nm NE 
162050Z 06006KT 10SM SKC 04/M16 A3044
KLDJ 
16nm E 
162055Z AUTO 11009G15KT 10SM CLR 05/M17 A3044 RMK AO2 T00481175
KTTN 
20nm SW 
ASOS 133.70 609-538-8690
162053Z 08008KT 10SM CLR 03/M16 A3041 RMK AO2 SLP292 T00331161 55002
TAF
KTTN 
20nm SW 
161737Z 1618/1718 05014G22KT P6SM SKC FM162200 05008KT P6SM SKC FM170400 03010KT P6SM BKN250 FM171400 04013G21KT P6SM OVC040 FM171500 04013G21KT P6SM OVC025
KEWR 
21nm E 
162008Z 1620/1724 05010G18KT P6SM SKC FM170000 03010KT P6SM SKC FM171200 03012KT P6SM BKN035 FM171400 04013KT P6SM BKN030 FM171600 04014G23KT P6SM BKN030
NOTAMs
Click for the latest NOTAMs
NOTAMs are issued by the DoD/FAA and will open in a separate window not controlled by AirNav.

 

 
 

Would you like to see your business listed on this page?

 If your business provides an interesting product or service to pilots, flight crews, aircraft, or users of the Somerset Medical Center Heliport, you should consider listing it here.  To start the listing process, click on the button below
 
Add a business
 

Other Pages about Somerset Medical Center Heliport

Update a link
 
Copyright © AirNav, LLC. All rights reserved. Privacy Policy  Contact